sensor_id;sensor_type;location;lat;lon;timestamp;temperature;humidity
40808;DHT22;26523;52.504;13.498;2024-01-11T00:00:31;-7.40;99.90
40808;DHT22;26523;52.504;13.498;2024-01-11T00:02:56;-7.40;99.90
40808;DHT22;26523;52.504;13.498;2024-01-11T00:05:22;-7.50;99.90
40808;DHT22;26523;52.504;13.498;2024-01-11T00:07:48;-7.50;99.90
40808;DHT22;26523;52.504;13.498;2024-01-11T00:10:14;-7.50;99.90
40808;DHT22;26523;52.504;13.498;2024-01-11T00:12:39;-7.40;99.90
40808;DHT22;26523;52.504;13.498;2024-01-11T00:15:05;-7.40;99.90
40808;DHT22;26523;52.504;13.498;2024-01-11T00:17:31;-7.40;99.90
40808;DHT22;26523;52.504;13.498;2024-01-11T00:19:58;-7.50;99.90
40808;DHT22;26523;52.504;13.498;2024-01-11T00:22:24;-7.50;99.90
40808;DHT22;26523;52.504;13.498;2024-01-11T00:24:51;-7.50;99.90
40808;DHT22;26523;52.504;13.498;2024-01-11T00:27:16;-7.40;99.90
40808;DHT22;26523;52.504;13.498;2024-01-11T00:29:42;-7.50;99.90
40808;DHT22;26523;52.504;13.498;2024-01-11T00:32:08;-7.50;99.90
40808;DHT22;26523;52.504;13.498;2024-01-11T00:34:33;-7.50;99.90
40808;DHT22;26523;52.504;13.498;2024-01-11T00:37:01;-7.50;99.90
40808;DHT22;26523;52.504;13.498;2024-01-11T00:39:31;-7.50;99.90
40808;DHT22;26523;52.504;13.498;2024-01-11T00:41:59;-7.60;99.90
40808;DHT22;26523;52.504;13.498;2024-01-11T00:44:26;-7.60;99.90
40808;DHT22;26523;52.504;13.498;2024-01-11T00:46:52;-7.60;99.90
40808;DHT22;26523;52.504;13.498;2024-01-11T00:49:18;-7.50;99.90
40808;DHT22;26523;52.504;13.498;2024-01-11T00:51:43;-7.50;99.90
40808;DHT22;26523;52.504;13.498;2024-01-11T00:54:09;-7.50;99.90
40808;DHT22;26523;52.504;13.498;2024-01-11T00:56:34;-7.60;99.90
40808;DHT22;26523;52.504;13.498;2024-01-11T00:59:00;-7.70;99.90
40808;DHT22;26523;52.504;13.498;2024-01-11T01:01:27;-7.70;99.90
40808;DHT22;26523;52.504;13.498;2024-01-11T01:03:53;-7.70;99.90
40808;DHT22;26523;52.504;13.498;2024-01-11T01:06:18;-7.70;99.90
40808;DHT22;26523;52.504;13.498;2024-01-11T01:08:44;-7.70;99.90
40808;DHT22;26523;52.504;13.498;2024-01-11T01:11:09;-7.60;99.90
40808;DHT22;26523;52.504;13.498;2024-01-11T01:13:35;-7.60;99.90
40808;DHT22;26523;52.504;13.498;2024-01-11T01:16:01;-7.50;99.90
40808;DHT22;26523;52.504;13.498;2024-01-11T01:18:26;-7.60;99.90
40808;DHT22;26523;52.504;13.498;2024-01-11T01:20:52;-7.50;99.90
40808;DHT22;26523;52.504;13.498;2024-01-11T01:23:18;-7.50;99.90
40808;DHT22;26523;52.504;13.498;2024-01-11T01:25:44;-7.40;99.90
40808;DHT22;26523;52.504;13.498;2024-01-11T01:28:10;-7.40;99.90
40808;DHT22;26523;52.504;13.498;2024-01-11T01:30:36;-7.40;99.90
40808;DHT22;26523;52.504;13.498;2024-01-11T01:33:02;-7.30;99.90
40808;DHT22;26523;52.504;13.498;2024-01-11T01:35:27;-7.40;99.90
40808;DHT22;26523;52.504;13.498;2024-01-11T01:37:53;-7.50;99.90
40808;DHT22;26523;52.504;13.498;2024-01-11T01:40:18;-7.50;99.90
40808;DHT22;26523;52.504;13.498;2024-01-11T01:42:45;-7.40;99.90
40808;DHT22;26523;52.504;13.498;2024-01-11T01:45:11;-7.30;99.90
40808;DHT22;26523;52.504;13.498;2024-01-11T01:47:38;-7.30;99.90
40808;DHT22;26523;52.504;13.498;2024-01-11T01:50:06;-7.20;99.90
40808;DHT22;26523;52.504;13.498;2024-01-11T01:52:32;-7.20;99.90
40808;DHT22;26523;52.504;13.498;2024-01-11T01:54:58;-7.20;99.90
40808;DHT22;26523;52.504;13.498;2024-01-11T01:57:25;-7.10;99.90
40808;DHT22;26523;52.504;13.498;2024-01-11T01:59:51;-7.20;99.90
40808;DHT22;26523;52.504;13.498;2024-01-11T02:02:20;-7.30;99.90
40808;DHT22;26523;52.504;13.498;2024-01-11T02:04:46;-7.30;99.90
40808;DHT22;26523;52.504;13.498;2024-01-11T02:07:13;-7.30;99.90
40808;DHT22;26523;52.504;13.498;2024-01-11T02:09:40;-7.20;99.90
40808;DHT22;26523;52.504;13.498;2024-01-11T02:12:06;-7.20;99.90
40808;DHT22;26523;52.504;13.498;2024-01-11T02:14:34;-7.10;99.90
40808;DHT22;26523;52.504;13.498;2024-01-11T02:17:02;-7.00;99.90
40808;DHT22;26523;52.504;13.498;2024-01-11T02:19:28;-6.90;99.90
40808;DHT22;26523;52.504;13.498;2024-01-11T02:21:54;-6.80;99.90
40808;DHT22;26523;52.504;13.498;2024-01-11T02:24:20;-6.70;99.90
40808;DHT22;26523;52.504;13.498;2024-01-11T02:27:03;-6.60;99.90
40808;DHT22;26523;52.504;13.498;2024-01-11T02:29:30;-6.60;99.90
40808;DHT22;26523;52.504;13.498;2024-01-11T02:31:57;-6.50;99.90
40808;DHT22;26523;52.504;13.498;2024-01-11T02:34:23;-6.50;99.90
40808;DHT22;26523;52.504;13.498;2024-01-11T02:36:50;-6.40;99.90
40808;DHT22;26523;52.504;13.498;2024-01-11T02:39:16;-6.40;99.90
40808;DHT22;26523;52.504;13.498;2024-01-11T02:41:47;-6.40;99.90
40808;DHT22;26523;52.504;13.498;2024-01-11T02:44:14;-6.40;99.90
40808;DHT22;26523;52.504;13.498;2024-01-11T02:46:40;-6.40;99.90
40808;DHT22;26523;52.504;13.498;2024-01-11T02:49:06;-6.40;99.90
40808;DHT22;26523;52.504;13.498;2024-01-11T02:51:31;-6.30;99.90
40808;DHT22;26523;52.504;13.498;2024-01-11T02:53:58;-6.20;99.90
40808;DHT22;26523;52.504;13.498;2024-01-11T02:56:24;-6.20;99.90
40808;DHT22;26523;52.504;13.498;2024-01-11T02:58:50;-6.20;99.90
40808;DHT22;26523;52.504;13.498;2024-01-11T03:01:15;-6.10;99.90
40808;DHT22;26523;52.504;13.498;2024-01-11T03:03:41;-6.10;99.90
40808;DHT22;26523;52.504;13.498;2024-01-11T03:06:07;-6.00;99.90
40808;DHT22;26523;52.504;13.498;2024-01-11T03:08:33;-6.10;99.90
40808;DHT22;26523;52.504;13.498;2024-01-11T03:10:59;-6.10;99.90
40808;DHT22;26523;52.504;13.498;2024-01-11T03:13:24;-6.10;99.90
40808;DHT22;26523;52.504;13.498;2024-01-11T03:15:50;-6.10;99.90
40808;DHT22;26523;52.504;13.498;2024-01-11T03:18:15;-6.20;99.90
40808;DHT22;26523;52.504;13.498;2024-01-11T03:20:41;-6.20;99.90
40808;DHT22;26523;52.504;13.498;2024-01-11T03:23:07;-6.30;99.90
40808;DHT22;26523;52.504;13.498;2024-01-11T03:25:33;-6.30;99.90
40808;DHT22;26523;52.504;13.498;2024-01-11T03:27:58;-6.30;99.90
40808;DHT22;26523;52.504;13.498;2024-01-11T03:30:24;-6.30;99.90
40808;DHT22;26523;52.504;13.498;2024-01-11T03:32:50;-6.30;99.90
40808;DHT22;26523;52.504;13.498;2024-01-11T03:35:17;-6.30;99.90
40808;DHT22;26523;52.504;13.498;2024-01-11T03:37:43;-6.40;99.90
40808;DHT22;26523;52.504;13.498;2024-01-11T03:40:09;-6.30;99.90
40808;DHT22;26523;52.504;13.498;2024-01-11T03:42:35;-6.30;99.90
40808;DHT22;26523;52.504;13.498;2024-01-11T03:45:01;-6.30;99.90
40808;DHT22;26523;52.504;13.498;2024-01-11T03:47:26;-6.20;99.90
40808;DHT22;26523;52.504;13.498;2024-01-11T03:49:52;-6.20;99.90
40808;DHT22;26523;52.504;13.498;2024-01-11T03:52:17;-6.10;99.90
40808;DHT22;26523;52.504;13.498;2024-01-11T03:54:43;-6.20;99.90
40808;DHT22;26523;52.504;13.498;2024-01-11T03:57:09;-6.10;99.90
40808;DHT22;26523;52.504;13.498;2024-01-11T03:59:34;-6.00;99.90
40808;DHT22;26523;52.504;13.498;2024-01-11T04:02:00;-6.00;99.90
40808;DHT22;26523;52.504;13.498;2024-01-11T04:04:26;-5.90;99.90
40808;DHT22;26523;52.504;13.498;2024-01-11T04:06:52;-6.00;99.90
40808;DHT22;26523;52.504;13.498;2024-01-11T04:09:18;-6.00;99.90
40808;DHT22;26523;52.504;13.498;2024-01-11T04:11:45;-6.00;99.90
40808;DHT22;26523;52.504;13.498;2024-01-11T04:14:11;-5.90;99.90
40808;DHT22;26523;52.504;13.498;2024-01-11T04:16:41;-5.90;99.90
40808;DHT22;26523;52.504;13.498;2024-01-11T04:19:07;-5.80;99.90
40808;DHT22;26523;52.504;13.498;2024-01-11T04:21:33;-5.80;99.90
40808;DHT22;26523;52.504;13.498;2024-01-11T04:24:00;-5.70;99.90
40808;DHT22;26523;52.504;13.498;2024-01-11T04:26:26;-5.60;99.90
40808;DHT22;26523;52.504;13.498;2024-01-11T04:28:52;-5.60;99.90
40808;DHT22;26523;52.504;13.498;2024-01-11T04:31:18;-5.60;99.90
40808;DHT22;26523;52.504;13.498;2024-01-11T04:33:45;-5.60;99.90
40808;DHT22;26523;52.504;13.498;2024-01-11T04:36:11;-5.60;99.90
40808;DHT22;26523;52.504;13.498;2024-01-11T04:38:37;-5.50;99.90
40808;DHT22;26523;52.504;13.498;2024-01-11T04:41:12;-5.60;99.90
40808;DHT22;26523;52.504;13.498;2024-01-11T04:43:38;-5.50;99.90
40808;DHT22;26523;52.504;13.498;2024-01-11T04:46:18;-5.50;99.90
40808;DHT22;26523;52.504;13.498;2024-01-11T04:48:44;-5.40;99.90
40808;DHT22;26523;52.504;13.498;2024-01-11T04:51:10;-5.40;99.90
40808;DHT22;26523;52.504;13.498;2024-01-11T04:53:37;-5.30;99.90
40808;DHT22;26523;52.504;13.498;2024-01-11T04:56:04;-5.20;99.90
40808;DHT22;26523;52.504;13.498;2024-01-11T04:58:29;-5.10;99.90
40808;DHT22;26523;52.504;13.498;2024-01-11T05:00:55;-5.20;99.90
40808;DHT22;26523;52.504;13.498;2024-01-11T05:03:20;-5.10;99.90
40808;DHT22;26523;52.504;13.498;2024-01-11T05:05:46;-5.10;99.90
40808;DHT22;26523;52.504;13.498;2024-01-11T05:08:12;-5.00;99.90
40808;DHT22;26523;52.504;13.498;2024-01-11T05:10:38;-5.00;99.90
40808;DHT22;26523;52.504;13.498;2024-01-11T05:13:03;-5.00;99.90
40808;DHT22;26523;52.504;13.498;2024-01-11T05:15:30;-4.90;99.90
40808;DHT22;26523;52.504;13.498;2024-01-11T05:17:58;-4.90;99.90
40808;DHT22;26523;52.504;13.498;2024-01-11T05:20:24;-4.80;99.90
40808;DHT22;26523;52.504;13.498;2024-01-11T05:22:49;-4.80;99.90
40808;DHT22;26523;52.504;13.498;2024-01-11T05:25:15;-4.80;99.90
40808;DHT22;26523;52.504;13.498;2024-01-11T05:27:40;-4.70;99.90
40808;DHT22;26523;52.504;13.498;2024-01-11T05:30:07;-4.60;99.90
40808;DHT22;26523;52.504;13.498;2024-01-11T05:32:32;-4.60;99.90
40808;DHT22;26523;52.504;13.498;2024-01-11T05:34:58;-4.50;99.90
40808;DHT22;26523;52.504;13.498;2024-01-11T05:37:24;-4.50;99.90
40808;DHT22;26523;52.504;13.498;2024-01-11T05:39:50;-4.50;99.90
40808;DHT22;26523;52.504;13.498;2024-01-11T05:42:15;-4.50;99.90
40808;DHT22;26523;52.504;13.498;2024-01-11T05:44:41;-4.40;99.90
40808;DHT22;26523;52.504;13.498;2024-01-11T05:47:07;-4.40;99.90
40808;DHT22;26523;52.504;13.498;2024-01-11T05:49:33;-4.30;99.90
40808;DHT22;26523;52.504;13.498;2024-01-11T05:51:58;-4.30;99.90
40808;DHT22;26523;52.504;13.498;2024-01-11T05:54:24;-4.20;99.90
40808;DHT22;26523;52.504;13.498;2024-01-11T05:56:51;-4.20;99.90
40808;DHT22;26523;52.504;13.498;2024-01-11T05:59:21;-4.20;99.90
40808;DHT22;26523;52.504;13.498;2024-01-11T06:01:48;-4.10;99.90
40808;DHT22;26523;52.504;13.498;2024-01-11T06:04:15;-4.10;99.90
40808;DHT22;26523;52.504;13.498;2024-01-11T06:06:42;-4.00;99.90
40808;DHT22;26523;52.504;13.498;2024-01-11T06:09:08;-4.10;99.90
40808;DHT22;26523;52.504;13.498;2024-01-11T06:11:33;-4.00;99.90
40808;DHT22;26523;52.504;13.498;2024-01-11T06:13:59;-4.00;99.90
40808;DHT22;26523;52.504;13.498;2024-01-11T06:16:27;-3.90;99.90
40808;DHT22;26523;52.504;13.498;2024-01-11T06:18:53;-3.90;99.90
40808;DHT22;26523;52.504;13.498;2024-01-11T06:21:18;-3.90;99.90
40808;DHT22;26523;52.504;13.498;2024-01-11T06:23:44;-3.90;99.90
40808;DHT22;26523;52.504;13.498;2024-01-11T06:26:10;-3.80;99.90
40808;DHT22;26523;52.504;13.498;2024-01-11T06:28:35;-3.90;99.90
40808;DHT22;26523;52.504;13.498;2024-01-11T06:31:01;-3.70;99.90
40808;DHT22;26523;52.504;13.498;2024-01-11T06:33:28;-3.70;99.90
40808;DHT22;26523;52.504;13.498;2024-01-11T06:35:54;-3.80;99.90
40808;DHT22;26523;52.504;13.498;2024-01-11T06:38:19;-3.80;99.90
40808;DHT22;26523;52.504;13.498;2024-01-11T06:40:45;-3.60;99.90
40808;DHT22;26523;52.504;13.498;2024-01-11T06:43:11;-3.60;99.90
40808;DHT22;26523;52.504;13.498;2024-01-11T06:45:37;-3.60;99.90
40808;DHT22;26523;52.504;13.498;2024-01-11T06:48:04;-3.50;99.90
40808;DHT22;26523;52.504;13.498;2024-01-11T06:50:29;-3.60;99.90
40808;DHT22;26523;52.504;13.498;2024-01-11T06:52:55;-3.60;99.90
40808;DHT22;26523;52.504;13.498;2024-01-11T06:55:21;-3.50;99.90
40808;DHT22;26523;52.504;13.498;2024-01-11T06:57:47;-3.50;99.90
40808;DHT22;26523;52.504;13.498;2024-01-11T07:00:13;-3.50;99.90
40808;DHT22;26523;52.504;13.498;2024-01-11T07:02:39;-3.40;99.90
40808;DHT22;26523;52.504;13.498;2024-01-11T07:05:06;-3.40;99.90
40808;DHT22;26523;52.504;13.498;2024-01-11T07:07:31;-3.30;99.90
40808;DHT22;26523;52.504;13.498;2024-01-11T07:09:58;-3.20;99.90
40808;DHT22;26523;52.504;13.498;2024-01-11T07:12:24;-3.20;99.90
40808;DHT22;26523;52.504;13.498;2024-01-11T07:14:51;-3.20;99.90
40808;DHT22;26523;52.504;13.498;2024-01-11T07:17:17;-3.10;99.90
40808;DHT22;26523;52.504;13.498;2024-01-11T07:19:43;-3.10;99.90
40808;DHT22;26523;52.504;13.498;2024-01-11T07:22:08;-3.10;99.90
40808;DHT22;26523;52.504;13.498;2024-01-11T07:24:34;-3.10;99.90
40808;DHT22;26523;52.504;13.498;2024-01-11T07:27:07;-3.00;99.90
40808;DHT22;26523;52.504;13.498;2024-01-11T07:29:37;-3.00;99.90
40808;DHT22;26523;52.504;13.498;2024-01-11T07:32:03;-2.90;99.90
40808;DHT22;26523;52.504;13.498;2024-01-11T07:34:29;-3.00;99.90
40808;DHT22;26523;52.504;13.498;2024-01-11T07:36:55;-2.90;99.90
40808;DHT22;26523;52.504;13.498;2024-01-11T07:39:25;-2.90;99.90
40808;DHT22;26523;52.504;13.498;2024-01-11T07:41:51;-2.80;99.90
40808;DHT22;26523;52.504;13.498;2024-01-11T07:44:16;-2.80;99.90
40808;DHT22;26523;52.504;13.498;2024-01-11T07:46:42;-2.90;99.90
40808;DHT22;26523;52.504;13.498;2024-01-11T07:49:08;-2.80;99.90
40808;DHT22;26523;52.504;13.498;2024-01-11T07:51:34;-2.80;99.90
40808;DHT22;26523;52.504;13.498;2024-01-11T07:54:04;-2.80;99.90
40808;DHT22;26523;52.504;13.498;2024-01-11T07:56:32;-2.70;99.90
40808;DHT22;26523;52.504;13.498;2024-01-11T07:58:57;-2.70;99.90
40808;DHT22;26523;52.504;13.498;2024-01-11T08:01:23;-2.70;99.90
40808;DHT22;26523;52.504;13.498;2024-01-11T08:03:49;-2.70;99.90
40808;DHT22;26523;52.504;13.498;2024-01-11T08:06:17;-2.70;99.90
40808;DHT22;26523;52.504;13.498;2024-01-11T08:08:43;-2.60;99.90
40808;DHT22;26523;52.504;13.498;2024-01-11T08:11:10;-2.60;99.90
40808;DHT22;26523;52.504;13.498;2024-01-11T08:13:37;-2.60;99.90
40808;DHT22;26523;52.504;13.498;2024-01-11T08:16:04;-2.60;99.90
40808;DHT22;26523;52.504;13.498;2024-01-11T08:18:32;-2.50;99.90
40808;DHT22;26523;52.504;13.498;2024-01-11T08:20:58;-2.50;99.90
40808;DHT22;26523;52.504;13.498;2024-01-11T08:23:25;-2.50;99.90
40808;DHT22;26523;52.504;13.498;2024-01-11T08:25:50;-2.50;99.90
40808;DHT22;26523;52.504;13.498;2024-01-11T08:28:18;-2.40;99.90
40808;DHT22;26523;52.504;13.498;2024-01-11T08:30:44;-2.40;99.90
40808;DHT22;26523;52.504;13.498;2024-01-11T08:33:10;-2.50;99.90
40808;DHT22;26523;52.504;13.498;2024-01-11T08:35:39;-2.40;99.90
40808;DHT22;26523;52.504;13.498;2024-01-11T08:38:06;-2.40;99.90
40808;DHT22;26523;52.504;13.498;2024-01-11T08:40:31;-2.30;99.90
40808;DHT22;26523;52.504;13.498;2024-01-11T08:42:57;-2.30;99.90
40808;DHT22;26523;52.504;13.498;2024-01-11T08:45:23;-2.30;99.90
40808;DHT22;26523;52.504;13.498;2024-01-11T08:47:49;-2.30;99.90
40808;DHT22;26523;52.504;13.498;2024-01-11T08:50:15;-2.20;99.90
40808;DHT22;26523;52.504;13.498;2024-01-11T08:52:42;-2.20;99.90
40808;DHT22;26523;52.504;13.498;2024-01-11T08:55:08;-2.20;99.90
40808;DHT22;26523;52.504;13.498;2024-01-11T08:57:34;-2.20;99.90
40808;DHT22;26523;52.504;13.498;2024-01-11T09:00:03;-2.20;99.90
40808;DHT22;26523;52.504;13.498;2024-01-11T09:02:33;-2.10;99.90
40808;DHT22;26523;52.504;13.498;2024-01-11T09:05:01;-2.20;99.90
40808;DHT22;26523;52.504;13.498;2024-01-11T09:07:30;-2.00;99.90
40808;DHT22;26523;52.504;13.498;2024-01-11T09:09:55;-1.90;99.90
40808;DHT22;26523;52.504;13.498;2024-01-11T09:12:21;-1.90;99.90
40808;DHT22;26523;52.504;13.498;2024-01-11T09:14:47;-1.90;99.90
40808;DHT22;26523;52.504;13.498;2024-01-11T09:17:13;-1.80;99.90
40808;DHT22;26523;52.504;13.498;2024-01-11T09:19:39;-1.90;99.90
40808;DHT22;26523;52.504;13.498;2024-01-11T09:22:05;-1.80;99.90
40808;DHT22;26523;52.504;13.498;2024-01-11T09:24:31;-1.80;99.90
40808;DHT22;26523;52.504;13.498;2024-01-11T09:26:56;-1.80;99.90
40808;DHT22;26523;52.504;13.498;2024-01-11T09:29:22;-1.70;99.90
40808;DHT22;26523;52.504;13.498;2024-01-11T09:31:48;-1.70;99.90
40808;DHT22;26523;52.504;13.498;2024-01-11T09:34:13;-1.60;99.90
40808;DHT22;26523;52.504;13.498;2024-01-11T09:36:39;-1.60;99.90
40808;DHT22;26523;52.504;13.498;2024-01-11T09:39:05;-1.40;99.90
40808;DHT22;26523;52.504;13.498;2024-01-11T09:41:31;-1.40;99.90
40808;DHT22;26523;52.504;13.498;2024-01-11T09:44:00;-1.40;99.90
40808;DHT22;26523;52.504;13.498;2024-01-11T09:46:27;-1.30;99.90
40808;DHT22;26523;52.504;13.498;2024-01-11T09:48:54;-1.30;99.90
40808;DHT22;26523;52.504;13.498;2024-01-11T09:51:21;-1.30;99.90
40808;DHT22;26523;52.504;13.498;2024-01-11T09:53:48;-1.30;99.90
40808;DHT22;26523;52.504;13.498;2024-01-11T09:56:16;-1.40;99.90
40808;DHT22;26523;52.504;13.498;2024-01-11T09:58:47;-1.40;99.90
40808;DHT22;26523;52.504;13.498;2024-01-11T10:01:14;-1.40;99.90
40808;DHT22;26523;52.504;13.498;2024-01-11T10:03:40;-1.40;99.90
40808;DHT22;26523;52.504;13.498;2024-01-11T10:06:10;-1.40;99.90
40808;DHT22;26523;52.504;13.498;2024-01-11T10:08:36;-1.40;99.90
40808;DHT22;26523;52.504;13.498;2024-01-11T10:11:02;-1.40;99.90
40808;DHT22;26523;52.504;13.498;2024-01-11T10:13:30;-1.30;99.90
40808;DHT22;26523;52.504;13.498;2024-01-11T10:16:09;-1.30;99.90
40808;DHT22;26523;52.504;13.498;2024-01-11T10:18:36;-1.20;99.90
40808;DHT22;26523;52.504;13.498;2024-01-11T10:21:02;-1.30;99.90
40808;DHT22;26523;52.504;13.498;2024-01-11T10:23:30;-1.20;99.90
40808;DHT22;26523;52.504;13.498;2024-01-11T10:25:59;-1.20;99.90
40808;DHT22;26523;52.504;13.498;2024-01-11T10:28:25;-1.10;99.90
40808;DHT22;26523;52.504;13.498;2024-01-11T10:30:52;-1.20;99.90
40808;DHT22;26523;52.504;13.498;2024-01-11T10:33:22;-1.10;99.90
40808;DHT22;26523;52.504;13.498;2024-01-11T10:35:50;-1.10;99.90
40808;DHT22;26523;52.504;13.498;2024-01-11T10:38:20;-1.10;99.90
40808;DHT22;26523;52.504;13.498;2024-01-11T10:40:46;-1.10;99.90
40808;DHT22;26523;52.504;13.498;2024-01-11T10:43:15;-1.20;99.90
40808;DHT22;26523;52.504;13.498;2024-01-11T10:45:45;-1.10;99.90
40808;DHT22;26523;52.504;13.498;2024-01-11T10:48:14;-1.10;99.90
40808;DHT22;26523;52.504;13.498;2024-01-11T10:50:44;-1.00;99.90
40808;DHT22;26523;52.504;13.498;2024-01-11T10:53:25;-1.10;99.90
40808;DHT22;26523;52.504;13.498;2024-01-11T10:55:53;-1.10;99.90
40808;DHT22;26523;52.504;13.498;2024-01-11T10:58:20;-1.10;99.90
40808;DHT22;26523;52.504;13.498;2024-01-11T11:00:47;-0.90;99.90
40808;DHT22;26523;52.504;13.498;2024-01-11T11:03:16;-1.00;99.90
40808;DHT22;26523;52.504;13.498;2024-01-11T11:05:43;-0.90;99.90
40808;DHT22;26523;52.504;13.498;2024-01-11T11:08:10;-1.00;99.90
40808;DHT22;26523;52.504;13.498;2024-01-11T11:10:39;-0.90;99.90
40808;DHT22;26523;52.504;13.498;2024-01-11T11:13:06;-1.00;99.90
40808;DHT22;26523;52.504;13.498;2024-01-11T11:15:32;-1.00;99.90
40808;DHT22;26523;52.504;13.498;2024-01-11T11:17:58;-1.00;99.90
40808;DHT22;26523;52.504;13.498;2024-01-11T11:20:27;-1.00;99.90
40808;DHT22;26523;52.504;13.498;2024-01-11T11:23:06;-1.00;99.90
40808;DHT22;26523;52.504;13.498;2024-01-11T11:25:34;-1.10;99.90
40808;DHT22;26523;52.504;13.498;2024-01-11T11:27:59;-1.10;99.90
40808;DHT22;26523;52.504;13.498;2024-01-11T11:30:40;-1.10;99.90
40808;DHT22;26523;52.504;13.498;2024-01-11T11:33:17;-1.10;99.90
40808;DHT22;26523;52.504;13.498;2024-01-11T11:35:46;-1.10;99.90
40808;DHT22;26523;52.504;13.498;2024-01-11T11:38:22;-1.10;99.90
40808;DHT22;26523;52.504;13.498;2024-01-11T11:40:50;-1.00;99.90
40808;DHT22;26523;52.504;13.498;2024-01-11T11:43:18;-1.10;99.90
40808;DHT22;26523;52.504;13.498;2024-01-11T11:45:47;-1.10;99.90
40808;DHT22;26523;52.504;13.498;2024-01-11T11:51:07;-1.00;99.90
40808;DHT22;26523;52.504;13.498;2024-01-11T11:53:35;-0.90;99.90
40808;DHT22;26523;52.504;13.498;2024-01-11T11:56:02;-1.00;99.90
40808;DHT22;26523;52.504;13.498;2024-01-11T11:58:29;-0.90;99.90
40808;DHT22;26523;52.504;13.498;2024-01-11T12:00:55;-0.90;99.90
40808;DHT22;26523;52.504;13.498;2024-01-11T12:03:31;-0.80;99.90
40808;DHT22;26523;52.504;13.498;2024-01-11T12:05:58;-0.80;99.90
40808;DHT22;26523;52.504;13.498;2024-01-11T12:08:24;-0.80;99.90
40808;DHT22;26523;52.504;13.498;2024-01-11T12:10:51;-0.80;99.90
40808;DHT22;26523;52.504;13.498;2024-01-11T12:13:17;-0.80;99.90
40808;DHT22;26523;52.504;13.498;2024-01-11T12:15:46;-0.80;99.90
40808;DHT22;26523;52.504;13.498;2024-01-11T12:18:15;-0.80;99.90
40808;DHT22;26523;52.504;13.498;2024-01-11T12:20:45;-0.80;99.90
40808;DHT22;26523;52.504;13.498;2024-01-11T12:23:11;-0.70;99.90
40808;DHT22;26523;52.504;13.498;2024-01-11T12:25:43;-0.60;99.90
40808;DHT22;26523;52.504;13.498;2024-01-11T12:28:09;-0.60;99.90
40808;DHT22;26523;52.504;13.498;2024-01-11T12:30:35;-0.60;99.90
40808;DHT22;26523;52.504;13.498;2024-01-11T12:33:01;-0.60;99.90
40808;DHT22;26523;52.504;13.498;2024-01-11T12:35:28;-0.60;99.90
40808;DHT22;26523;52.504;13.498;2024-01-11T12:37:54;-0.70;99.90
40808;DHT22;26523;52.504;13.498;2024-01-11T12:40:21;-0.60;99.90
40808;DHT22;26523;52.504;13.498;2024-01-11T12:42:55;-0.60;99.90
40808;DHT22;26523;52.504;13.498;2024-01-11T12:45:23;-0.60;99.90
40808;DHT22;26523;52.504;13.498;2024-01-11T12:47:55;-0.60;99.90
40808;DHT22;26523;52.504;13.498;2024-01-11T12:50:23;-0.60;99.90
40808;DHT22;26523;52.504;13.498;2024-01-11T12:53:11;-0.60;99.90
40808;DHT22;26523;52.504;13.498;2024-01-11T12:55:48;-0.50;99.90
40808;DHT22;26523;52.504;13.498;2024-01-11T12:58:20;-0.50;99.90
40808;DHT22;26523;52.504;13.498;2024-01-11T13:00:50;-0.40;99.90
40808;DHT22;26523;52.504;13.498;2024-01-11T13:03:17;-0.40;99.90
40808;DHT22;26523;52.504;13.498;2024-01-11T13:05:46;-0.40;99.90
40808;DHT22;26523;52.504;13.498;2024-01-11T13:08:13;-0.40;99.90
40808;DHT22;26523;52.504;13.498;2024-01-11T13:10:39;-0.30;99.90
40808;DHT22;26523;52.504;13.498;2024-01-11T13:13:07;-0.40;99.90
40808;DHT22;26523;52.504;13.498;2024-01-11T13:15:33;-0.30;99.90
40808;DHT22;26523;52.504;13.498;2024-01-11T13:18:04;-0.30;99.90
40808;DHT22;26523;52.504;13.498;2024-01-11T13:20:30;-0.20;99.90
40808;DHT22;26523;52.504;13.498;2024-01-11T13:25:43;-0.20;99.90
40808;DHT22;26523;52.504;13.498;2024-01-11T13:28:10;-0.20;99.90
40808;DHT22;26523;52.504;13.498;2024-01-11T13:30:39;-0.20;99.90
40808;DHT22;26523;52.504;13.498;2024-01-11T13:33:06;-0.20;99.90
40808;DHT22;26523;52.504;13.498;2024-01-11T13:35:37;-0.20;99.90
40808;DHT22;26523;52.504;13.498;2024-01-11T13:38:03;-0.20;99.90
40808;DHT22;26523;52.504;13.498;2024-01-11T13:40:30;-0.20;99.90
40808;DHT22;26523;52.504;13.498;2024-01-11T13:42:57;-0.20;99.90
40808;DHT22;26523;52.504;13.498;2024-01-11T13:45:24;-0.20;99.90
40808;DHT22;26523;52.504;13.498;2024-01-11T13:47:50;-0.30;99.90
40808;DHT22;26523;52.504;13.498;2024-01-11T13:50:16;-0.30;99.90
40808;DHT22;26523;52.504;13.498;2024-01-11T13:52:43;-0.30;99.90
40808;DHT22;26523;52.504;13.498;2024-01-11T13:55:10;-0.20;99.90
40808;DHT22;26523;52.504;13.498;2024-01-11T13:57:37;-0.20;99.90
40808;DHT22;26523;52.504;13.498;2024-01-11T14:00:04;-0.20;99.90
40808;DHT22;26523;52.504;13.498;2024-01-11T14:02:31;-0.20;99.90
40808;DHT22;26523;52.504;13.498;2024-01-11T14:04:57;-0.30;99.90
40808;DHT22;26523;52.504;13.498;2024-01-11T14:07:24;-0.30;99.90
40808;DHT22;26523;52.504;13.498;2024-01-11T14:09:50;-0.30;99.90
40808;DHT22;26523;52.504;13.498;2024-01-11T14:12:17;-0.30;99.90
40808;DHT22;26523;52.504;13.498;2024-01-11T14:14:43;-0.30;99.90
40808;DHT22;26523;52.504;13.498;2024-01-11T14:17:10;-0.30;99.90
40808;DHT22;26523;52.504;13.498;2024-01-11T14:19:35;-0.30;99.90
40808;DHT22;26523;52.504;13.498;2024-01-11T14:22:01;-0.30;99.90
40808;DHT22;26523;52.504;13.498;2024-01-11T14:24:27;-0.30;99.90
40808;DHT22;26523;52.504;13.498;2024-01-11T14:26:54;-0.30;99.90
40808;DHT22;26523;52.504;13.498;2024-01-11T14:29:19;-0.30;99.90
40808;DHT22;26523;52.504;13.498;2024-01-11T14:31:45;-0.40;99.90
40808;DHT22;26523;52.504;13.498;2024-01-11T14:34:11;-0.40;99.90
40808;DHT22;26523;52.504;13.498;2024-01-11T14:36:38;-0.40;99.90
40808;DHT22;26523;52.504;13.498;2024-01-11T14:39:04;-0.40;99.90
40808;DHT22;26523;52.504;13.498;2024-01-11T14:41:33;-0.40;99.90
40808;DHT22;26523;52.504;13.498;2024-01-11T14:44:00;-0.40;99.90
40808;DHT22;26523;52.504;13.498;2024-01-11T14:46:29;-0.40;99.90
40808;DHT22;26523;52.504;13.498;2024-01-11T14:48:55;-0.40;99.90
40808;DHT22;26523;52.504;13.498;2024-01-11T14:51:21;-0.40;99.90
40808;DHT22;26523;52.504;13.498;2024-01-11T14:53:46;-0.40;99.90
40808;DHT22;26523;52.504;13.498;2024-01-11T14:56:12;-0.50;99.90
40808;DHT22;26523;52.504;13.498;2024-01-11T14:58:42;-0.40;99.90
40808;DHT22;26523;52.504;13.498;2024-01-11T15:01:08;-0.50;99.90
40808;DHT22;26523;52.504;13.498;2024-01-11T15:03:37;-0.50;99.90
40808;DHT22;26523;52.504;13.498;2024-01-11T15:06:03;-0.50;99.90
40808;DHT22;26523;52.504;13.498;2024-01-11T15:08:30;-0.50;99.90
40808;DHT22;26523;52.504;13.498;2024-01-11T15:10:56;-0.50;99.90
40808;DHT22;26523;52.504;13.498;2024-01-11T15:13:24;-0.50;99.90
40808;DHT22;26523;52.504;13.498;2024-01-11T15:15:49;-0.40;99.90
40808;DHT22;26523;52.504;13.498;2024-01-11T15:18:15;-0.50;99.90